sensor_id;sensor_type;location;lat;lon;timestamp;P1;durP1;ratioP1;P2;durP2;ratioP2
60038;SDS011;45916;52.734;6.544;2022-11-20T00:01:10;29.60;;;24.83;;
60038;SDS011;45916;52.734;6.544;2022-11-20T00:03:38;34.95;;;28.58;;
60038;SDS011;45916;52.734;6.544;2022-11-20T00:06:05;32.58;;;26.67;;
60038;SDS011;45916;52.734;6.544;2022-11-20T00:08:32;36.15;;;27.73;;
60038;SDS011;45916;52.734;6.544;2022-11-20T00:11:05;43.93;;;33.87;;
60038;SDS011;45916;52.734;6.544;2022-11-20T00:13:32;37.70;;;31.40;;
60038;SDS011;45916;52.734;6.544;2022-11-20T00:15:58;43.73;;;34.03;;
60038;SDS011;45916;52.734;6.544;2022-11-20T00:18:25;45.80;;;35.63;;
60038;SDS011;45916;52.734;6.544;2022-11-20T00:20:52;42.67;;;36.13;;
60038;SDS011;45916;52.734;6.544;2022-11-20T00:23:17;50.17;;;37.60;;
60038;SDS011;45916;52.734;6.544;2022-11-20T00:25:43;44.87;;;37.23;;
60038;SDS011;45916;52.734;6.544;2022-11-20T00:28:09;43.67;;;34.07;;
60038;SDS011;45916;52.734;6.544;2022-11-20T00:30:35;42.07;;;34.30;;
60038;SDS011;45916;52.734;6.544;2022-11-20T00:33:00;40.77;;;32.83;;
60038;SDS011;45916;52.734;6.544;2022-11-20T00:35:26;40.10;;;31.57;;
60038;SDS011;45916;52.734;6.544;2022-11-20T00:37:51;44.80;;;34.63;;
60038;SDS011;45916;52.734;6.544;2022-11-20T00:40:17;44.53;;;34.20;;
60038;SDS011;45916;52.734;6.544;2022-11-20T00:42:43;41.92;;;32.53;;
60038;SDS011;45916;52.734;6.544;2022-11-20T00:45:08;40.67;;;31.50;;
60038;SDS011;45916;52.734;6.544;2022-11-20T00:47:34;43.37;;;33.47;;
60038;SDS011;45916;52.734;6.544;2022-11-20T00:50:00;39.58;;;31.88;;
60038;SDS011;45916;52.734;6.544;2022-11-20T00:52:25;45.75;;;31.88;;
60038;SDS011;45916;52.734;6.544;2022-11-20T00:54:51;39.58;;;31.08;;
60038;SDS011;45916;52.734;6.544;2022-11-20T00:57:17;42.15;;;32.08;;
60038;SDS011;45916;52.734;6.544;2022-11-20T00:59:42;43.28;;;33.38;;
60038;SDS011;45916;52.734;6.544;2022-11-20T01:02:08;39.70;;;31.17;;
60038;SDS011;45916;52.734;6.544;2022-11-20T01:04:34;41.25;;;31.52;;
60038;SDS011;45916;52.734;6.544;2022-11-20T01:06:59;40.80;;;31.92;;
60038;SDS011;45916;52.734;6.544;2022-11-20T01:09:25;39.65;;;31.08;;
60038;SDS011;45916;52.734;6.544;2022-11-20T01:11:51;40.58;;;32.40;;
60038;SDS011;45916;52.734;6.544;2022-11-20T01:14:17;35.35;;;29.80;;
60038;SDS011;45916;52.734;6.544;2022-11-20T01:16:45;42.30;;;29.57;;
60038;SDS011;45916;52.734;6.544;2022-11-20T01:19:14;36.92;;;28.42;;
60038;SDS011;45916;52.734;6.544;2022-11-20T01:21:42;35.08;;;29.40;;
60038;SDS011;45916;52.734;6.544;2022-11-20T01:24:11;35.38;;;28.75;;
60038;SDS011;45916;52.734;6.544;2022-11-20T01:26:40;33.90;;;27.40;;
60038;SDS011;45916;52.734;6.544;2022-11-20T01:29:07;37.78;;;30.73;;
60038;SDS011;45916;52.734;6.544;2022-11-20T01:31:37;37.88;;;31.45;;
60038;SDS011;45916;52.734;6.544;2022-11-20T01:34:07;37.60;;;29.60;;
60038;SDS011;45916;52.734;6.544;2022-11-20T01:36:36;36.90;;;30.30;;
60038;SDS011;45916;52.734;6.544;2022-11-20T01:39:13;36.75;;;29.50;;
60038;SDS011;45916;52.734;6.544;2022-11-20T01:41:44;35.63;;;29.58;;
60038;SDS011;45916;52.734;6.544;2022-11-20T01:47:35;37.45;;;30.55;;
60038;SDS011;45916;52.734;6.544;2022-11-20T01:52:50;36.67;;;31.00;;
60038;SDS011;45916;52.734;6.544;2022-11-20T01:55:21;36.53;;;30.38;;
60038;SDS011;45916;52.734;6.544;2022-11-20T01:57:50;41.20;;;32.97;;
60038;SDS011;45916;52.734;6.544;2022-11-20T02:00:18;41.15;;;30.45;;
60038;SDS011;45916;52.734;6.544;2022-11-20T02:02:50;36.85;;;29.33;;
60038;SDS011;45916;52.734;6.544;2022-11-20T02:05:32;38.35;;;29.52;;
60038;SDS011;45916;52.734;6.544;2022-11-20T02:08:05;37.58;;;30.00;;
60038;SDS011;45916;52.734;6.544;2022-11-20T02:10:32;36.67;;;28.58;;
60038;SDS011;45916;52.734;6.544;2022-11-20T02:12:58;36.63;;;27.45;;
60038;SDS011;45916;52.734;6.544;2022-11-20T02:15:42;38.95;;;30.00;;
60038;SDS011;45916;52.734;6.544;2022-11-20T02:18:09;37.60;;;29.00;;
60038;SDS011;45916;52.734;6.544;2022-11-20T02:20:36;37.97;;;29.77;;
60038;SDS011;45916;52.734;6.544;2022-11-20T02:23:10;37.10;;;26.50;;
60038;SDS011;45916;52.734;6.544;2022-11-20T02:25:41;35.30;;;28.55;;
60038;SDS011;45916;52.734;6.544;2022-11-20T02:28:08;35.75;;;26.75;;
60038;SDS011;45916;52.734;6.544;2022-11-20T02:30:35;34.75;;;27.85;;
60038;SDS011;45916;52.734;6.544;2022-11-20T02:33:00;35.20;;;27.73;;
60038;SDS011;45916;52.734;6.544;2022-11-20T02:37:57;33.22;;;26.38;;
60038;SDS011;45916;52.734;6.544;2022-11-20T02:40:26;38.05;;;27.25;;
60038;SDS011;45916;52.734;6.544;2022-11-20T02:42:52;31.73;;;25.58;;
60038;SDS011;45916;52.734;6.544;2022-11-20T02:45:18;32.40;;;26.73;;
60038;SDS011;45916;52.734;6.544;2022-11-20T02:47:44;32.80;;;26.05;;
60038;SDS011;45916;52.734;6.544;2022-11-20T02:50:09;34.05;;;26.10;;
60038;SDS011;45916;52.734;6.544;2022-11-20T02:52:35;39.50;;;28.13;;
60038;SDS011;45916;52.734;6.544;2022-11-20T02:55:01;33.63;;;25.52;;
60038;SDS011;45916;52.734;6.544;2022-11-20T02:57:27;38.25;;;26.20;;
60038;SDS011;45916;52.734;6.544;2022-11-20T02:59:53;36.45;;;25.98;;
60038;SDS011;45916;52.734;6.544;2022-11-20T03:02:19;31.85;;;27.75;;
60038;SDS011;45916;52.734;6.544;2022-11-20T03:04:45;32.65;;;26.05;;
60038;SDS011;45916;52.734;6.544;2022-11-20T03:07:11;34.97;;;26.60;;
60038;SDS011;45916;52.734;6.544;2022-11-20T03:09:36;30.35;;;24.52;;
60038;SDS011;45916;52.734;6.544;2022-11-20T03:12:02;34.75;;;26.42;;
60038;SDS011;45916;52.734;6.544;2022-11-20T03:14:28;32.58;;;26.70;;
60038;SDS011;45916;52.734;6.544;2022-11-20T03:16:54;33.05;;;24.77;;
60038;SDS011;45916;52.734;6.544;2022-11-20T03:19:20;32.88;;;24.80;;
60038;SDS011;45916;52.734;6.544;2022-11-20T03:21:46;31.85;;;25.92;;
60038;SDS011;45916;52.734;6.544;2022-11-20T03:24:12;33.72;;;27.35;;
60038;SDS011;45916;52.734;6.544;2022-11-20T03:26:38;35.20;;;26.73;;
60038;SDS011;45916;52.734;6.544;2022-11-20T03:29:04;31.13;;;26.15;;
60038;SDS011;45916;52.734;6.544;2022-11-20T03:31:34;33.58;;;25.50;;
60038;SDS011;45916;52.734;6.544;2022-11-20T03:34:02;31.38;;;25.17;;
60038;SDS011;45916;52.734;6.544;2022-11-20T03:36:29;32.83;;;24.67;;
60038;SDS011;45916;52.734;6.544;2022-11-20T03:38:55;31.38;;;24.80;;
60038;SDS011;45916;52.734;6.544;2022-11-20T03:41:23;31.35;;;25.90;;
60038;SDS011;45916;52.734;6.544;2022-11-20T03:43:59;36.17;;;26.70;;
60038;SDS011;45916;52.734;6.544;2022-11-20T03:46:27;30.95;;;23.70;;
60038;SDS011;45916;52.734;6.544;2022-11-20T03:48:53;30.77;;;25.40;;
60038;SDS011;45916;52.734;6.544;2022-11-20T03:51:23;32.28;;;26.25;;
60038;SDS011;45916;52.734;6.544;2022-11-20T03:53:50;29.92;;;25.42;;
60038;SDS011;45916;52.734;6.544;2022-11-20T03:56:18;31.52;;;24.42;;
60038;SDS011;45916;52.734;6.544;2022-11-20T03:58:47;29.45;;;25.08;;
60038;SDS011;45916;52.734;6.544;2022-11-20T04:01:13;30.70;;;24.58;;
60038;SDS011;45916;52.734;6.544;2022-11-20T04:03:41;29.33;;;23.77;;
60038;SDS011;45916;52.734;6.544;2022-11-20T04:06:12;29.45;;;23.05;;
60038;SDS011;45916;52.734;6.544;2022-11-20T04:08:40;28.92;;;22.83;;
60038;SDS011;45916;52.734;6.544;2022-11-20T04:11:13;30.33;;;23.17;;
60038;SDS011;45916;52.734;6.544;2022-11-20T04:13:50;28.58;;;22.60;;
60038;SDS011;45916;52.734;6.544;2022-11-20T04:16:18;29.05;;;23.50;;
60038;SDS011;45916;52.734;6.544;2022-11-20T04:18:44;32.47;;;23.90;;
60038;SDS011;45916;52.734;6.544;2022-11-20T04:21:10;30.17;;;23.27;;
60038;SDS011;45916;52.734;6.544;2022-11-20T04:23:35;29.95;;;23.27;;
60038;SDS011;45916;52.734;6.544;2022-11-20T04:26:02;29.95;;;25.80;;
60038;SDS011;45916;52.734;6.544;2022-11-20T04:28:28;28.00;;;23.20;;
60038;SDS011;45916;52.734;6.544;2022-11-20T04:30:54;32.25;;;24.52;;
60038;SDS011;45916;52.734;6.544;2022-11-20T04:33:26;29.60;;;24.30;;
60038;SDS011;45916;52.734;6.544;2022-11-20T04:35:51;27.85;;;23.17;;
60038;SDS011;45916;52.734;6.544;2022-11-20T04:38:17;31.27;;;23.35;;
60038;SDS011;45916;52.734;6.544;2022-11-20T04:40:43;33.00;;;25.77;;
60038;SDS011;45916;52.734;6.544;2022-11-20T04:43:08;30.45;;;23.00;;
60038;SDS011;45916;52.734;6.544;2022-11-20T04:45:34;27.33;;;24.23;;
60038;SDS011;45916;52.734;6.544;2022-11-20T04:47:59;29.88;;;24.20;;
60038;SDS011;45916;52.734;6.544;2022-11-20T04:50:25;28.42;;;24.02;;
60038;SDS011;45916;52.734;6.544;2022-11-20T04:52:51;29.70;;;23.25;;
60038;SDS011;45916;52.734;6.544;2022-11-20T04:55:16;31.77;;;24.80;;
60038;SDS011;45916;52.734;6.544;2022-11-20T04:57:42;29.23;;;23.55;;
60038;SDS011;45916;52.734;6.544;2022-11-20T05:00:08;29.63;;;24.70;;
60038;SDS011;45916;52.734;6.544;2022-11-20T05:02:34;28.60;;;23.08;;
60038;SDS011;45916;52.734;6.544;2022-11-20T05:04:59;28.85;;;22.92;;
60038;SDS011;45916;52.734;6.544;2022-11-20T05:07:25;29.10;;;24.55;;
60038;SDS011;45916;52.734;6.544;2022-11-20T05:09:51;27.92;;;23.42;;
60038;SDS011;45916;52.734;6.544;2022-11-20T05:12:16;27.80;;;23.05;;
60038;SDS011;45916;52.734;6.544;2022-11-20T05:14:42;29.23;;;23.50;;
60038;SDS011;45916;52.734;6.544;2022-11-20T05:17:09;29.35;;;23.27;;
60038;SDS011;45916;52.734;6.544;2022-11-20T05:19:36;31.40;;;25.20;;
60038;SDS011;45916;52.734;6.544;2022-11-20T05:22:01;30.92;;;24.42;;
60038;SDS011;45916;52.734;6.544;2022-11-20T05:24:27;29.77;;;23.35;;
60038;SDS011;45916;52.734;6.544;2022-11-20T05:26:53;32.88;;;24.58;;
60038;SDS011;45916;52.734;6.544;2022-11-20T05:29:18;26.30;;;22.70;;
60038;SDS011;45916;52.734;6.544;2022-11-20T05:31:44;27.15;;;22.92;;
60038;SDS011;45916;52.734;6.544;2022-11-20T05:34:10;30.08;;;23.48;;
60038;SDS011;45916;52.734;6.544;2022-11-20T05:36:35;30.88;;;23.10;;
60038;SDS011;45916;52.734;6.544;2022-11-20T05:39:01;30.33;;;23.60;;
60038;SDS011;45916;52.734;6.544;2022-11-20T05:41:27;26.95;;;21.75;;
60038;SDS011;45916;52.734;6.544;2022-11-20T05:43:53;29.73;;;23.75;;
60038;SDS011;45916;52.734;6.544;2022-11-20T05:46:21;30.98;;;23.50;;
60038;SDS011;45916;52.734;6.544;2022-11-20T05:48:46;31.05;;;23.73;;
60038;SDS011;45916;52.734;6.544;2022-11-20T05:51:14;28.20;;;22.50;;
60038;SDS011;45916;52.734;6.544;2022-11-20T05:53:41;31.42;;;23.67;;
60038;SDS011;45916;52.734;6.544;2022-11-20T05:56:09;30.75;;;24.95;;
60038;SDS011;45916;52.734;6.544;2022-11-20T05:58:36;28.38;;;22.67;;
60038;SDS011;45916;52.734;6.544;2022-11-20T06:01:07;29.35;;;24.42;;
60038;SDS011;45916;52.734;6.544;2022-11-20T06:03:39;28.45;;;23.10;;
60038;SDS011;45916;52.734;6.544;2022-11-20T06:08:33;28.40;;;22.58;;
60038;SDS011;45916;52.734;6.544;2022-11-20T06:11:02;29.48;;;23.27;;
60038;SDS011;45916;52.734;6.544;2022-11-20T06:13:32;29.83;;;23.73;;
60038;SDS011;45916;52.734;6.544;2022-11-20T06:15:58;27.08;;;22.15;;
60038;SDS011;45916;52.734;6.544;2022-11-20T06:18:25;28.10;;;24.42;;
60038;SDS011;45916;52.734;6.544;2022-11-20T06:20:58;29.52;;;23.48;;
60038;SDS011;45916;52.734;6.544;2022-11-20T06:23:27;28.23;;;23.00;;
60038;SDS011;45916;52.734;6.544;2022-11-20T06:25:53;30.70;;;23.55;;
60038;SDS011;45916;52.734;6.544;2022-11-20T06:28:19;28.38;;;22.10;;
60038;SDS011;45916;52.734;6.544;2022-11-20T06:30:45;27.65;;;21.80;;
60038;SDS011;45916;52.734;6.544;2022-11-20T06:33:11;27.15;;;21.90;;
60038;SDS011;45916;52.734;6.544;2022-11-20T06:35:36;27.20;;;22.58;;
60038;SDS011;45916;52.734;6.544;2022-11-20T06:38:02;26.45;;;20.75;;
60038;SDS011;45916;52.734;6.544;2022-11-20T06:40:27;24.63;;;20.45;;
60038;SDS011;45916;52.734;6.544;2022-11-20T06:42:53;26.33;;;20.70;;
60038;SDS011;45916;52.734;6.544;2022-11-20T06:45:20;24.27;;;18.00;;
60038;SDS011;45916;52.734;6.544;2022-11-20T06:47:46;24.42;;;19.48;;
60038;SDS011;45916;52.734;6.544;2022-11-20T06:50:12;24.10;;;19.48;;
60038;SDS011;45916;52.734;6.544;2022-11-20T06:52:38;25.02;;;18.88;;
60038;SDS011;45916;52.734;6.544;2022-11-20T06:55:03;22.65;;;18.90;;
60038;SDS011;45916;52.734;6.544;2022-11-20T06:57:29;27.25;;;19.35;;
60038;SDS011;45916;52.734;6.544;2022-11-20T06:59:55;24.58;;;18.52;;
60038;SDS011;45916;52.734;6.544;2022-11-20T07:02:21;25.15;;;18.88;;
60038;SDS011;45916;52.734;6.544;2022-11-20T07:04:46;24.85;;;19.92;;
60038;SDS011;45916;52.734;6.544;2022-11-20T07:07:12;24.27;;;19.05;;
60038;SDS011;45916;52.734;6.544;2022-11-20T07:09:38;30.95;;;19.35;;
60038;SDS011;45916;52.734;6.544;2022-11-20T07:12:03;26.30;;;18.70;;
60038;SDS011;45916;52.734;6.544;2022-11-20T07:14:29;26.90;;;21.95;;
60038;SDS011;45916;52.734;6.544;2022-11-20T07:16:55;23.42;;;19.10;;
60038;SDS011;45916;52.734;6.544;2022-11-20T07:19:20;26.67;;;21.23;;
60038;SDS011;45916;52.734;6.544;2022-11-20T07:21:47;24.63;;;20.42;;
60038;SDS011;45916;52.734;6.544;2022-11-20T07:24:13;28.55;;;20.52;;
60038;SDS011;45916;52.734;6.544;2022-11-20T07:26:39;28.65;;;22.33;;
60038;SDS011;45916;52.734;6.544;2022-11-20T07:29:04;26.80;;;21.27;;
60038;SDS011;45916;52.734;6.544;2022-11-20T07:31:30;24.17;;;19.00;;
60038;SDS011;45916;52.734;6.544;2022-11-20T07:33:56;26.58;;;20.30;;
60038;SDS011;45916;52.734;6.544;2022-11-20T07:36:21;27.02;;;20.70;;
60038;SDS011;45916;52.734;6.544;2022-11-20T07:38:47;25.77;;;19.95;;
60038;SDS011;45916;52.734;6.544;2022-11-20T07:41:13;26.10;;;20.25;;
60038;SDS011;45916;52.734;6.544;2022-11-20T07:43:38;26.33;;;20.60;;
60038;SDS011;45916;52.734;6.544;2022-11-20T07:46:04;25.23;;;20.38;;
60038;SDS011;45916;52.734;6.544;2022-11-20T07:48:30;26.13;;;21.70;;
60038;SDS011;45916;52.734;6.544;2022-11-20T07:50:56;24.13;;;20.27;;
60038;SDS011;45916;52.734;6.544;2022-11-20T07:53:22;25.15;;;21.25;;
60038;SDS011;45916;52.734;6.544;2022-11-20T07:55:48;24.13;;;20.30;;
60038;SDS011;45916;52.734;6.544;2022-11-20T07:58:13;22.92;;;19.30;;
60038;SDS011;45916;52.734;6.544;2022-11-20T08:00:39;27.02;;;21.20;;
60038;SDS011;45916;52.734;6.544;2022-11-20T08:03:06;24.58;;;19.00;;
60038;SDS011;45916;52.734;6.544;2022-11-20T08:05:32;24.45;;;20.08;;
60038;SDS011;45916;52.734;6.544;2022-11-20T08:07:58;26.23;;;19.92;;
60038;SDS011;45916;52.734;6.544;2022-11-20T08:10:23;25.05;;;20.15;;
60038;SDS011;45916;52.734;6.544;2022-11-20T08:12:50;28.25;;;21.70;;
60038;SDS011;45916;52.734;6.544;2022-11-20T08:15:35;26.48;;;20.08;;
60038;SDS011;45916;52.734;6.544;2022-11-20T08:20:34;22.52;;;20.23;;
60038;SDS011;45916;52.734;6.544;2022-11-20T08:23:00;22.67;;;18.13;;
60038;SDS011;45916;52.734;6.544;2022-11-20T08:25:31;26.08;;;20.38;;
60038;SDS011;45916;52.734;6.544;2022-11-20T08:28:02;24.63;;;18.52;;
60038;SDS011;45916;52.734;6.544;2022-11-20T08:30:30;24.40;;;19.48;;
60038;SDS011;45916;52.734;6.544;2022-11-20T08:33:04;23.67;;;18.85;;
60038;SDS011;45916;52.734;6.544;2022-11-20T08:35:34;27.00;;;21.30;;
60038;SDS011;45916;52.734;6.544;2022-11-20T08:38:04;24.38;;;19.88;;
60038;SDS011;45916;52.734;6.544;2022-11-20T08:40:30;23.38;;;19.25;;
60038;SDS011;45916;52.734;6.544;2022-11-20T08:42:56;25.58;;;20.80;;
60038;SDS011;45916;52.734;6.544;2022-11-20T08:45:22;26.92;;;20.95;;
60038;SDS011;45916;52.734;6.544;2022-11-20T08:47:48;24.27;;;20.25;;
60038;SDS011;45916;52.734;6.544;2022-11-20T08:50:14;24.25;;;20.23;;
60038;SDS011;45916;52.734;6.544;2022-11-20T08:52:41;25.02;;;19.38;;
60038;SDS011;45916;52.734;6.544;2022-11-20T08:55:07;27.30;;;20.33;;
60038;SDS011;45916;52.734;6.544;2022-11-20T08:57:34;24.45;;;19.10;;
60038;SDS011;45916;52.734;6.544;2022-11-20T09:00:01;23.17;;;20.13;;
60038;SDS011;45916;52.734;6.544;2022-11-20T09:02:28;24.55;;;19.52;;
60038;SDS011;45916;52.734;6.544;2022-11-20T09:04:54;24.00;;;18.75;;
60038;SDS011;45916;52.734;6.544;2022-11-20T09:07:20;22.98;;;19.02;;
60038;SDS011;45916;52.734;6.544;2022-11-20T09:09:45;24.17;;;20.45;;
60038;SDS011;45916;52.734;6.544;2022-11-20T09:12:11;21.60;;;19.30;;
60038;SDS011;45916;52.734;6.544;2022-11-20T09:14:37;21.45;;;18.85;;
60038;SDS011;45916;52.734;6.544;2022-11-20T09:17:03;26.23;;;21.45;;
60038;SDS011;45916;52.734;6.544;2022-11-20T09:19:28;23.10;;;18.77;;
60038;SDS011;45916;52.734;6.544;2022-11-20T09:21:54;21.55;;;18.55;;
60038;SDS011;45916;52.734;6.544;2022-11-20T09:24:19;20.27;;;17.33;;
60038;SDS011;45916;52.734;6.544;2022-11-20T09:26:48;19.40;;;17.40;;
60038;SDS011;45916;52.734;6.544;2022-11-20T09:29:13;19.48;;;16.70;;
60038;SDS011;45916;52.734;6.544;2022-11-20T09:31:39;19.70;;;17.60;;
60038;SDS011;45916;52.734;6.544;2022-11-20T09:34:05;19.45;;;17.10;;
60038;SDS011;45916;52.734;6.544;2022-11-20T09:36:31;20.20;;;18.02;;
60038;SDS011;45916;52.734;6.544;2022-11-20T09:38:56;18.58;;;16.67;;
60038;SDS011;45916;52.734;6.544;2022-11-20T09:41:35;19.70;;;17.60;;
60038;SDS011;45916;52.734;6.544;2022-11-20T09:44:31;19.45;;;16.23;;
60038;SDS011;45916;52.734;6.544;2022-11-20T09:47:11;17.63;;;15.85;;
60038;SDS011;45916;52.734;6.544;2022-11-20T09:49:59;17.75;;;15.95;;
60038;SDS011;45916;52.734;6.544;2022-11-20T09:52:55;18.30;;;16.23;;
60038;SDS011;45916;52.734;6.544;2022-11-20T09:55:48;15.85;;;14.18;;
60038;SDS011;45916;52.734;6.544;2022-11-20T09:58:29;15.48;;;13.77;;
60038;SDS011;45916;52.734;6.544;2022-11-20T10:01:11;16.23;;;14.52;;
60038;SDS011;45916;52.734;6.544;2022-11-20T10:03:54;15.23;;;13.68;;
60038;SDS011;45916;52.734;6.544;2022-11-20T10:06:28;16.63;;;14.93;;
60038;SDS011;45916;52.734;6.544;2022-11-20T10:08:58;15.90;;;14.27;;
60038;SDS011;45916;52.734;6.544;2022-11-20T10:11:46;16.58;;;14.15;;
60038;SDS011;45916;52.734;6.544;2022-11-20T10:17:08;15.93;;;14.32;;
60038;SDS011;45916;52.734;6.544;2022-11-20T10:19:54;15.57;;;13.98;;
60038;SDS011;45916;52.734;6.544;2022-11-20T10:23:12;15.05;;;13.55;;
60038;SDS011;45916;52.734;6.544;2022-11-20T10:25:43;16.60;;;14.90;;
60038;SDS011;45916;52.734;6.544;2022-11-20T10:28:39;16.60;;;14.90;;
60038;SDS011;45916;52.734;6.544;2022-11-20T10:31:32;15.73;;;13.52;;
60038;SDS011;45916;52.734;6.544;2022-11-20T10:34:05;15.32;;;13.73;;
60038;SDS011;45916;52.734;6.544;2022-11-20T10:36:43;15.68;;;14.07;;
60038;SDS011;45916;52.734;6.544;2022-11-20T10:39:39;15.02;;;13.48;;
60038;SDS011;45916;52.734;6.544;2022-11-20T10:42:16;14.23;;;12.68;;
60038;SDS011;45916;52.734;6.544;2022-11-20T10:44:52;15.10;;;13.32;;
60038;SDS011;45916;52.734;6.544;2022-11-20T10:47:30;15.77;;;14.07;;
60038;SDS011;45916;52.734;6.544;2022-11-20T10:49:57;14.47;;;12.93;;
60038;SDS011;45916;52.734;6.544;2022-11-20T10:58:20;15.93;;;14.20;;
60038;SDS011;45916;52.734;6.544;2022-11-20T11:00:50;16.70;;;14.70;;
60038;SDS011;45916;52.734;6.544;2022-11-20T11:03:24;16.65;;;14.70;;
60038;SDS011;45916;52.734;6.544;2022-11-20T11:06:00;18.13;;;15.30;;
60038;SDS011;45916;52.734;6.544;2022-11-20T11:08:32;17.25;;;14.65;;
60038;SDS011;45916;52.734;6.544;2022-11-20T11:11:01;16.73;;;15.02;;
60038;SDS011;45916;52.734;6.544;2022-11-20T11:13:45;16.30;;;14.60;;
60038;SDS011;45916;52.734;6.544;2022-11-20T11:16:22;17.45;;;15.50;;
60038;SDS011;45916;52.734;6.544;2022-11-20T11:18:49;16.67;;;14.65;;
60038;SDS011;45916;52.734;6.544;2022-11-20T11:21:25;16.73;;;14.93;;
60038;SDS011;45916;52.734;6.544;2022-11-20T11:23:59;17.65;;;14.73;;
60038;SDS011;45916;52.734;6.544;2022-11-20T11:26:27;15.52;;;13.93;;
60038;SDS011;45916;52.734;6.544;2022-11-20T11:28:57;17.00;;;15.23;;
60038;SDS011;45916;52.734;6.544;2022-11-20T11:31:24;17.88;;;16.02;;
60038;SDS011;45916;52.734;6.544;2022-11-20T11:36:55;17.30;;;15.50;;
60038;SDS011;45916;52.734;6.544;2022-11-20T11:39:22;16.60;;;13.98;;
60038;SDS011;45916;52.734;6.544;2022-11-20T11:41:50;17.17;;;15.18;;
60038;SDS011;45916;52.734;6.544;2022-11-20T11:44:20;18.27;;;15.55;;
60038;SDS011;45916;52.734;6.544;2022-11-20T11:47:17;17.13;;;14.30;;
60038;SDS011;45916;52.734;6.544;2022-11-20T11:55:27;17.80;;;14.82;;
60038;SDS011;45916;52.734;6.544;2022-11-20T11:58:09;17.33;;;14.95;;
60038;SDS011;45916;52.734;6.544;2022-11-20T12:03:35;17.20;;;14.52;;
60038;SDS011;45916;52.734;6.544;2022-11-20T12:06:08;17.13;;;15.38;;
60038;SDS011;45916;52.734;6.544;2022-11-20T12:16:13;17.38;;;15.38;;
60038;SDS011;45916;52.734;6.544;2022-11-20T12:18:43;18.58;;;14.85;;
60038;SDS011;45916;52.734;6.544;2022-11-20T12:29:05;21.13;;;16.58;;
60038;SDS011;45916;52.734;6.544;2022-11-20T12:37:26;19.60;;;15.93;;
60038;SDS011;45916;52.734;6.544;2022-11-20T12:39:54;22.08;;;17.17;;
60038;SDS011;45916;52.734;6.544;2022-11-20T12:42:33;20.17;;;16.45;;
60038;SDS011;45916;52.734;6.544;2022-11-20T12:53:33;22.65;;;18.55;;
60038;SDS011;45916;52.734;6.544;2022-11-20T13:01:56;19.38;;;16.98;;
60038;SDS011;45916;52.734;6.544;2022-11-20T13:07:27;19.35;;;16.88;;
60038;SDS011;45916;52.734;6.544;2022-11-20T13:09:54;20.00;;;16.73;;
60038;SDS011;45916;52.734;6.544;2022-11-20T13:12:31;19.40;;;16.13;;
60038;SDS011;45916;52.734;6.544;2022-11-20T13:15:14;18.55;;;16.35;;
60038;SDS011;45916;52.734;6.544;2022-11-20T13:17:52;19.30;;;15.55;;
60038;SDS011;45916;52.734;6.544;2022-11-20T13:20:22;21.30;;;16.83;;
60038;SDS011;45916;52.734;6.544;2022-11-20T13:22:49;21.50;;;17.00;;
60038;SDS011;45916;52.734;6.544;2022-11-20T13:25:35;18.25;;;15.60;;
60038;SDS011;45916;52.734;6.544;2022-11-20T13:30:34;23.05;;;16.98;;
60038;SDS011;45916;52.734;6.544;2022-11-20T13:33:08;21.40;;;18.10;;
60038;SDS011;45916;52.734;6.544;2022-11-20T13:36:03;20.85;;;16.27;;
60038;SDS011;45916;52.734;6.544;2022-11-20T13:38:49;19.10;;;16.25;;
60038;SDS011;45916;52.734;6.544;2022-11-20T13:41:30;20.85;;;16.42;;
60038;SDS011;45916;52.734;6.544;2022-11-20T13:47:17;20.73;;;16.25;;
60038;SDS011;45916;52.734;6.544;2022-11-20T13:49:50;19.92;;;16.35;;
60038;SDS011;45916;52.734;6.544;2022-11-20T14:00:24;20.00;;;16.20;;
60038;SDS011;45916;52.734;6.544;2022-11-20T14:05:19;21.10;;;16.98;;
60038;SDS011;45916;52.734;6.544;2022-11-20T14:07:47;22.10;;;17.15;;
60038;SDS011;45916;52.734;6.544;2022-11-20T14:10:25;20.98;;;16.30;;
60038;SDS011;45916;52.734;6.544;2022-11-20T14:17:54;19.13;;;16.45;;
60038;SDS011;45916;52.734;6.544;2022-11-20T14:20:20;21.35;;;17.08;;
60038;SDS011;45916;52.734;6.544;2022-11-20T14:22:55;22.60;;;18.08;;
60038;SDS011;45916;52.734;6.544;2022-11-20T14:25:22;20.92;;;16.65;;
60038;SDS011;45916;52.734;6.544;2022-11-20T14:27:55;19.83;;;16.67;;
60038;SDS011;45916;52.734;6.544;2022-11-20T14:30:26;20.45;;;17.60;;
60038;SDS011;45916;52.734;6.544;2022-11-20T14:32:55;22.48;;;18.83;;
60038;SDS011;45916;52.734;6.544;2022-11-20T14:35:30;20.40;;;18.15;;
60038;SDS011;45916;52.734;6.544;2022-11-20T14:38:00;21.42;;;17.83;;
60038;SDS011;45916;52.734;6.544;2022-11-20T14:40:34;21.35;;;19.02;;
60038;SDS011;45916;52.734;6.544;2022-11-20T14:43:01;20.88;;;16.95;;
60038;SDS011;45916;52.734;6.544;2022-11-20T14:45:41;19.60;;;17.58;;
60038;SDS011;45916;52.734;6.544;2022-11-20T14:48:08;22.77;;;19.10;;
60038;SDS011;45916;52.734;6.544;2022-11-20T14:50:35;21.10;;;18.45;;
60038;SDS011;45916;52.734;6.544;2022-11-20T14:53:03;21.15;;;18.08;;
60038;SDS011;45916;52.734;6.544;2022-11-20T14:57:57;22.90;;;18.52;;
60038;SDS011;45916;52.734;6.544;2022-11-20T15:00:24;20.50;;;18.30;;
60038;SDS011;45916;52.734;6.544;2022-11-20T15:02:50;23.00;;;18.05;;
60038;SDS011;45916;52.734;6.544;2022-11-20T15:05:18;20.75;;;17.92;;
60038;SDS011;45916;52.734;6.544;2022-11-20T15:10:21;25.17;;;19.23;;
60038;SDS011;45916;52.734;6.544;2022-11-20T15:12:53;24.70;;;18.60;;
60038;SDS011;45916;52.734;6.544;2022-11-20T15:17:52;28.83;;;23.77;;
60038;SDS011;45916;52.734;6.544;2022-11-20T15:20:18;26.65;;;22.98;;
60038;SDS011;45916;52.734;6.544;2022-11-20T15:22:46;28.73;;;23.42;;
60038;SDS011;45916;52.734;6.544;2022-11-20T15:25:12;26.40;;;23.33;;
60038;SDS011;45916;52.734;6.544;2022-11-20T15:27:40;28.42;;;23.95;;
60038;SDS011;45916;52.734;6.544;2022-11-20T15:30:17;28.50;;;24.27;;
60038;SDS011;45916;52.734;6.544;2022-11-20T15:32:44;28.95;;;25.08;;
60038;SDS011;45916;52.734;6.544;2022-11-20T15:35:11;29.85;;;25.85;;
60038;SDS011;45916;52.734;6.544;2022-11-20T15:37:37;28.55;;;25.48;;
60038;SDS011;45916;52.734;6.544;2022-11-20T15:40:04;29.48;;;25.60;;
60038;SDS011;45916;52.734;6.544;2022-11-20T15:42:31;29.50;;;24.73;;
60038;SDS011;45916;52.734;6.544;2022-11-20T15:44:56;29.13;;;23.70;;
60038;SDS011;45916;52.734;6.544;2022-11-20T15:47:24;30.92;;;26.33;;
60038;SDS011;45916;52.734;6.544;2022-11-20T15:49:56;30.20;;;26.98;;
60038;SDS011;45916;52.734;6.544;2022-11-20T15:52:22;29.33;;;25.08;;
60038;SDS011;45916;52.734;6.544;2022-11-20T15:54:47;31.10;;;26.45;;
60038;SDS011;45916;52.734;6.544;2022-11-20T15:57:13;30.40;;;24.85;;
60038;SDS011;45916;52.734;6.544;2022-11-20T15:59:39;31.65;;;25.27;;
60038;SDS011;45916;52.734;6.544;2022-11-20T16:02:13;30.25;;;25.90;;
60038;SDS011;45916;52.734;6.544;2022-11-20T16:04:40;29.52;;;24.17;;
60038;SDS011;45916;52.734;6.544;2022-11-20T16:07:06;30.83;;;25.30;;
60038;SDS011;45916;52.734;6.544;2022-11-20T16:09:31;33.30;;;26.45;;
60038;SDS011;45916;52.734;6.544;2022-11-20T16:11:57;31.40;;;27.80;;
60038;SDS011;45916;52.734;6.544;2022-11-20T16:14:24;33.20;;;27.60;;